createdAt,value
2018-04-10T00:01:59.375Z,73.70
2018-04-10T00:04:26.942Z,73.80
2018-04-10T00:06:55.266Z,74.10
2018-04-10T00:09:22.795Z,74.00
2018-04-10T00:11:50.496Z,73.80
2018-04-10T00:14:18.108Z,73.90
2018-04-10T00:16:45.647Z,74.00
2018-04-10T00:19:13.987Z,74.20
2018-04-10T00:21:41.527Z,74.20
2018-04-10T00:24:09.092Z,74.10
2018-04-10T00:26:36.637Z,74.10
2018-04-10T00:29:04.204Z,74.40
2018-04-10T00:31:31.738Z,74.20
2018-04-10T00:33:59.318Z,74.60
2018-04-10T00:36:27.517Z,74.40
2018-04-10T00:38:55.111Z,74.50
2018-04-10T00:41:22.646Z,74.40
2018-04-10T00:43:50.230Z,74.30
2018-04-10T00:46:18.371Z,74.30
2018-04-10T00:48:45.912Z,74.60
2018-04-10T00:51:13.476Z,74.60
2018-04-10T00:53:40.988Z,74.80
2018-04-10T00:56:09.315Z,75.00
2018-04-10T00:58:36.903Z,75.00
2018-04-10T01:01:04.463Z,74.90
2018-04-10T01:03:32.006Z,75.10
2018-04-10T01:05:59.599Z,75.50
2018-04-10T01:08:27.139Z,75.60
2018-04-10T01:10:54.711Z,75.30
2018-04-10T01:13:22.282Z,74.60
2018-04-10T01:15:50.686Z,74.80
2018-04-10T01:18:18.223Z,74.80
2018-04-10T01:20:46.574Z,75.70
2018-04-10T01:23:15.023Z,75.60
2018-04-10T01:25:42.591Z,75.50
2018-04-10T01:28:10.136Z,75.50
2018-04-10T01:30:37.702Z,75.50
2018-04-10T01:33:05.392Z,75.50
2018-04-10T01:35:33.099Z,75.50
2018-04-10T01:38:01.396Z,75.50
2018-04-10T01:40:28.971Z,75.50
2018-04-10T01:42:56.503Z,75.50
2018-04-10T01:45:24.088Z,75.40
2018-04-10T01:47:51.643Z,75.40
2018-04-10T01:50:19.231Z,75.30
2018-04-10T01:52:46.776Z,75.30
2018-04-10T01:55:14.303Z,75.30
2018-04-10T01:57:41.840Z,75.30
2018-04-10T02:00:10.187Z,75.30
2018-04-10T02:02:37.725Z,75.20
2018-04-10T02:05:05.307Z,75.20
2018-04-10T02:07:32.842Z,75.20
2018-04-10T02:10:00.443Z,75.20
2018-04-10T02:12:27.971Z,75.20
2018-04-10T02:14:55.617Z,75.20
2018-04-10T02:17:26.103Z,75.20
2018-04-10T02:19:53.640Z,75.20
2018-04-10T02:22:21.219Z,75.10
2018-04-10T02:24:48.762Z,75.30
2018-04-10T02:27:16.603Z,75.50
2018-04-10T02:29:44.146Z,75.10
2018-04-10T02:32:12.065Z,75.50
2018-04-10T02:34:39.628Z,75.50
2018-04-10T02:37:07.969Z,74.90
2018-04-10T02:39:35.516Z,74.90
2018-04-10T02:42:03.098Z,74.90
2018-04-10T02:44:30.633Z,74.90
2018-04-10T02:46:58.207Z,75.40
2018-04-10T02:49:25.755Z,75.90
2018-04-10T02:51:53.331Z,75.90
2018-04-10T02:54:20.875Z,75.90
2018-04-10T02:56:48.521Z,75.60
2018-04-10T02:59:16.127Z,75.70
2018-04-10T03:01:43.896Z,75.80
2018-04-10T03:04:11.423Z,75.70
2018-04-10T03:06:38.999Z,75.90
2018-04-10T03:09:06.542Z,76.20
2018-04-10T03:11:34.114Z,76.10
2018-04-10T03:14:01.682Z,76.50
2018-04-10T03:16:29.391Z,76.10
2018-04-10T03:18:56.934Z,76.00
2018-04-10T03:21:25.275Z,75.90
2018-04-10T03:23:52.810Z,75.90
2018-04-10T03:26:20.375Z,76.70
2018-04-10T03:28:47.920Z,76.40
2018-04-10T03:31:15.491Z,75.80
2018-04-10T03:33:43.028Z,76.10
2018-04-10T03:36:10.956Z,76.10
2018-04-10T03:38:40.363Z,75.90
2018-04-10T03:41:07.915Z,76.00
2018-04-10T03:43:35.529Z,76.10
2018-04-10T03:46:03.908Z,76.00
2018-04-10T03:48:31.470Z,75.90
2018-04-10T03:50:59.010Z,75.60
2018-04-10T03:53:26.630Z,76.10
2018-04-10T03:55:54.179Z,76.30
2018-04-10T03:58:21.787Z,76.10
2018-04-10T04:00:49.387Z,76.40
2018-04-10T04:03:16.962Z,76.30
2018-04-10T04:05:44.496Z,76.20
2018-04-10T04:08:12.079Z,76.70
2018-04-10T04:10:39.619Z,76.90
2018-04-10T04:13:07.173Z,77.00
2018-04-10T04:15:34.747Z,76.90
2018-04-10T04:18:02.291Z,76.60
2018-04-10T04:20:42.549Z,77.40
2018-04-10T04:23:10.970Z,77.30
2018-04-10T04:25:38.851Z,77.30
2018-04-10T04:28:06.388Z,77.10
2018-04-10T04:30:33.966Z,77.30
2018-04-10T04:33:01.539Z,77.20
2018-04-10T04:35:29.106Z,76.90
2018-04-10T04:37:56.862Z,77.20
2018-04-10T04:40:25.189Z,76.70
2018-04-10T04:42:52.735Z,76.60
2018-04-10T04:45:20.276Z,76.60
2018-04-10T04:47:47.848Z,76.40
2018-04-10T04:50:15.380Z,76.60
2018-04-10T04:52:43.704Z,76.60
2018-04-10T04:55:11.252Z,76.60
2018-04-10T04:57:38.806Z,76.20
2018-04-10T05:00:06.638Z,76.00
2018-04-10T05:02:34.999Z,76.10
2018-04-10T05:05:02.532Z,76.00
2018-04-10T05:07:30.103Z,75.90
2018-04-10T05:09:57.774Z,75.80
2018-04-10T05:12:25.331Z,75.60
2018-04-10T05:14:52.879Z,74.90
2018-04-10T05:17:20.439Z,75.40
2018-04-10T05:19:47.972Z,75.00
2018-04-10T05:22:15.552Z,75.00
2018-04-10T05:24:43.272Z,75.00
2018-04-10T05:27:10.807Z,75.20
2018-04-10T05:29:38.383Z,75.20
2018-04-10T05:32:05.937Z,74.90
2018-04-10T05:34:33.490Z,74.40
2018-04-10T05:37:01.812Z,74.10
2018-04-10T05:39:29.390Z,74.00
2018-04-10T05:41:57.324Z,73.70
2018-04-10T05:44:24.919Z,73.60
2018-04-10T05:46:52.483Z,73.50
2018-04-10T05:49:20.069Z,73.20
2018-04-10T05:51:48.421Z,73.00
2018-04-10T05:54:16.157Z,72.80
2018-04-10T05:56:43.694Z,72.80
2018-04-10T05:59:11.373Z,72.70
2018-04-10T06:01:39.059Z,72.60
2018-04-10T06:04:06.622Z,72.50
2018-04-10T06:06:34.477Z,72.00
2018-04-10T06:09:02.118Z,71.80
2018-04-10T06:11:29.671Z,71.90
2018-04-10T06:13:57.293Z,72.00
2018-04-10T06:16:25.692Z,71.60
2018-04-10T06:18:53.278Z,72.00
2018-04-10T06:21:20.861Z,72.10
2018-04-10T06:23:48.442Z,72.00
2018-04-10T06:26:16.059Z,71.60
2018-04-10T06:28:43.595Z,71.10
2018-04-10T06:31:11.159Z,71.10
2018-04-10T06:33:39.490Z,71.10
2018-04-10T06:36:07.084Z,71.00
2018-04-10T06:38:35.383Z,70.80
2018-04-10T06:41:03.174Z,70.70
2018-04-10T06:43:30.730Z,70.60
2018-04-10T06:45:58.267Z,70.50
2018-04-10T06:48:25.843Z,70.40
2018-04-10T06:50:53.421Z,70.90
2018-04-10T06:53:21.057Z,70.10
2018-04-10T06:55:48.672Z,70.00
2018-04-10T06:58:17.724Z,69.70
2018-04-10T07:00:45.291Z,69.70
2018-04-10T07:03:12.831Z,69.60
2018-04-10T07:05:40.398Z,69.10
2018-04-10T07:08:07.947Z,69.00
2018-04-10T07:10:35.537Z,69.00
2018-04-10T07:13:03.139Z,69.00
2018-04-10T07:15:30.930Z,69.10
2018-04-10T07:17:58.481Z,68.20
2018-04-10T07:20:26.068Z,67.90
2018-04-10T07:22:53.623Z,67.80
2018-04-10T07:25:22.011Z,67.60
2018-04-10T07:27:49.599Z,68.30
2018-04-10T07:30:17.140Z,67.60
2018-04-10T07:32:44.928Z,67.30
2018-04-10T07:35:12.496Z,67.00
2018-04-10T07:37:40.034Z,66.90
2018-04-10T07:40:07.614Z,66.80
2018-04-10T07:42:35.155Z,66.60
2018-04-10T07:45:02.738Z,66.40
2018-04-10T07:47:30.280Z,66.20
2018-04-10T07:49:57.851Z,65.80
2018-04-10T07:52:25.402Z,65.80
2018-04-10T07:54:53.858Z,66.00
2018-04-10T07:57:21.399Z,66.10
2018-04-10T07:59:49.018Z,66.10
2018-04-10T08:02:17.360Z,65.90
2018-04-10T08:04:44.964Z,65.90
2018-04-10T08:07:13.573Z,65.20
2018-04-10T08:09:41.942Z,65.10
2018-04-10T08:12:09.632Z,64.80
2018-04-10T08:14:37.341Z,64.60
2018-04-10T08:17:04.921Z,64.40
2018-04-10T08:19:33.388Z,64.20
2018-04-10T08:22:01.734Z,63.60
2018-04-10T08:24:29.267Z,63.50
2018-04-10T08:26:56.825Z,63.20
2018-04-10T08:29:24.359Z,62.70
2018-04-10T08:31:51.942Z,62.70
2018-04-10T08:34:19.535Z,62.80
2018-04-10T08:36:47.095Z,62.90
2018-04-10T08:39:16.147Z,62.20
2018-04-10T08:41:43.767Z,62.20
2018-04-10T08:44:12.121Z,61.70
2018-04-10T08:46:40.459Z,61.10
2018-04-10T08:49:08.023Z,61.00
2018-04-10T08:51:35.565Z,60.80
2018-04-10T08:54:03.148Z,60.10
2018-04-10T08:56:30.655Z,59.70
2018-04-10T08:58:58.214Z,59.30
2018-04-10T09:01:25.737Z,58.90
2018-04-10T09:03:53.328Z,58.60
2018-04-10T09:06:20.846Z,58.70
2018-04-10T09:08:48.420Z,58.00
2018-04-10T09:11:15.966Z,58.40
2018-04-10T09:13:43.538Z,58.30
2018-04-10T09:16:11.135Z,57.20
2018-04-10T09:18:38.707Z,55.70
2018-04-10T09:21:06.265Z,56.40
2018-04-10T09:23:33.830Z,56.10
2018-04-10T09:26:02.135Z,54.90
2018-04-10T09:28:29.695Z,54.80
2018-04-10T09:30:57.252Z,55.20
2018-04-10T09:33:24.814Z,54.50
2018-04-10T09:35:52.546Z,54.70
2018-04-10T09:38:21.154Z,52.90
2018-04-10T09:40:48.687Z,52.80
2018-04-10T09:43:17.317Z,53.00
2018-04-10T09:45:44.842Z,52.90
2018-04-10T09:48:12.374Z,53.10
2018-04-10T09:50:39.928Z,53.00
2018-04-10T09:53:07.471Z,53.10
2018-04-10T09:55:35.040Z,53.10
2018-04-10T09:58:02.576Z,53.10
2018-04-10T10:00:35.687Z,53.20
2018-04-10T10:03:03.233Z,53.30
2018-04-10T10:05:30.793Z,53.30
2018-04-10T10:07:58.345Z,53.30
2018-04-10T10:10:26.304Z,52.40
2018-04-10T10:12:53.920Z,52.50
2018-04-10T10:15:21.475Z,51.80
2018-04-10T10:17:49.804Z,51.60
2018-04-10T10:20:17.331Z,51.50
2018-04-10T10:22:44.904Z,50.90
2018-04-10T10:25:12.447Z,50.70
2018-04-10T10:27:40.017Z,51.60
2018-04-10T10:30:07.555Z,50.60
2018-04-10T10:32:35.108Z,51.20
2018-04-10T10:35:03.403Z,51.00
2018-04-10T10:37:30.979Z,51.10
2018-04-10T10:39:58.536Z,50.90
2018-04-10T10:42:26.308Z,51.30
2018-04-10T10:44:53.848Z,50.40
2018-04-10T10:47:21.407Z,50.60
2018-04-10T10:49:48.950Z,50.90
2018-04-10T10:52:17.282Z,50.70
2018-04-10T10:54:44.828Z,50.60
2018-04-10T10:57:12.407Z,50.40
2018-04-10T10:59:39.983Z,51.60
2018-04-10T11:02:07.643Z,51.00
2018-04-10T11:04:35.380Z,50.50
2018-04-10T11:07:02.963Z,50.50
2018-04-10T11:09:30.531Z,49.80
2018-04-10T11:11:58.939Z,49.60
2018-04-10T11:14:26.488Z,49.70
2018-04-10T11:16:54.183Z,50.00
2018-04-10T11:19:21.679Z,50.30
2018-04-10T11:21:49.250Z,49.60
2018-04-10T11:24:16.789Z,48.70
2018-04-10T11:26:44.374Z,47.20
2018-04-10T11:29:12.051Z,47.10
2018-04-10T11:31:39.668Z,47.20
2018-04-10T11:34:07.196Z,47.40
2018-04-10T11:36:34.788Z,46.50
2018-04-10T11:39:02.343Z,46.30
2018-04-10T11:41:29.936Z,47.00
2018-04-10T11:43:57.511Z,47.10
2018-04-10T11:46:25.928Z,46.10
2018-04-10T11:48:53.707Z,45.90
2018-04-10T11:51:21.280Z,46.00
2018-04-10T11:53:48.829Z,46.60
2018-04-10T11:56:16.406Z,45.90
2018-04-10T11:58:43.953Z,45.80
2018-04-10T12:01:11.551Z,45.90
2018-04-10T12:03:39.861Z,46.00
2018-04-10T12:06:07.432Z,45.90
2018-04-10T12:08:35.159Z,45.70
2018-04-10T12:11:03.487Z,46.20
2018-04-10T12:13:31.021Z,46.40
2018-04-10T12:15:58.631Z,46.80
2018-04-10T12:18:27.091Z,45.80
2018-04-10T12:20:54.648Z,45.80
2018-04-10T12:23:22.195Z,47.10
2018-04-10T12:25:49.809Z,45.40
2018-04-10T12:28:18.131Z,45.40
2018-04-10T12:30:45.668Z,45.30
2018-04-10T12:33:13.223Z,46.30
2018-04-10T12:35:40.759Z,46.20
2018-04-10T12:38:08.331Z,46.10
2018-04-10T12:40:36.629Z,46.30
2018-04-10T12:43:04.265Z,46.30
2018-04-10T12:45:32.570Z,45.70
2018-04-10T12:48:00.133Z,45.80
2018-04-10T12:50:27.685Z,46.80
2018-04-10T12:52:55.239Z,46.70
2018-04-10T12:55:22.781Z,46.80
2018-04-10T12:57:51.111Z,47.00
2018-04-10T13:00:18.641Z,46.90
2018-04-10T13:02:46.203Z,46.20
2018-04-10T13:05:13.735Z,45.20
2018-04-10T13:07:41.298Z,46.60
2018-04-10T13:10:09.596Z,45.70
2018-04-10T13:12:37.185Z,45.70
2018-04-10T13:15:04.741Z,46.10
2018-04-10T13:17:32.279Z,44.00
2018-04-10T13:19:59.846Z,45.30
2018-04-10T13:22:27.385Z,45.20
2018-04-10T13:24:55.062Z,43.40
2018-04-10T13:27:22.725Z,42.50
2018-04-10T13:29:50.287Z,41.80
2018-04-10T13:32:17.822Z,40.50
2018-04-10T13:34:45.399Z,39.60
2018-04-10T13:37:12.951Z,37.40
2018-04-10T13:39:40.529Z,37.70
2018-04-10T13:42:08.056Z,38.10
2018-04-10T13:44:35.641Z,37.00
2018-04-10T13:47:03.184Z,37.20
2018-04-10T13:49:30.753Z,36.20
2018-04-10T13:51:58.296Z,35.40
2018-04-10T13:54:25.865Z,35.10
2018-04-10T13:56:53.618Z,33.60
2018-04-10T13:59:21.155Z,33.30
2018-04-10T14:01:49.506Z,31.80
2018-04-10T14:04:17.036Z,31.70
2018-04-10T14:06:44.604Z,31.50
2018-04-10T14:09:12.162Z,31.60
2018-04-10T14:11:39.759Z,31.60
2018-04-10T14:14:07.355Z,29.30
2018-04-10T14:16:34.944Z,31.00
2018-04-10T14:19:02.487Z,30.30
2018-04-10T14:21:30.067Z,29.50
2018-04-10T14:23:57.615Z,30.00
2018-04-10T14:26:25.237Z,29.00
2018-04-10T14:28:53.809Z,29.60
2018-04-10T14:31:21.461Z,29.60
2018-04-10T14:33:49.187Z,30.60
2018-04-10T14:36:16.750Z,30.70
2018-04-10T14:38:44.296Z,31.80
2018-04-10T14:41:12.218Z,31.70
2018-04-10T14:43:39.811Z,32.60
2018-04-10T14:46:07.390Z,33.10
2018-04-10T14:48:34.999Z,33.60
2018-04-10T14:51:02.587Z,34.50
2018-04-10T14:53:30.141Z,34.40
2018-04-10T14:55:58.481Z,35.00
2018-04-10T14:58:26.060Z,35.10
2018-04-10T15:00:53.675Z,35.60
2018-04-10T15:03:21.216Z,34.50
2018-04-10T15:05:49.053Z,34.90
2018-04-10T15:08:17.365Z,35.30
2018-04-10T15:10:45.000Z,35.20
2018-04-10T15:13:13.327Z,35.70
2018-04-10T15:15:41.028Z,35.60
2018-04-10T15:18:08.618Z,36.40
2018-04-10T15:20:36.153Z,36.20
2018-04-10T15:23:03.943Z,36.00
2018-04-10T15:25:31.482Z,35.80
2018-04-10T15:27:59.103Z,36.50
2018-04-10T15:30:26.645Z,36.60
2018-04-10T15:32:54.214Z,37.30
2018-04-10T15:35:21.755Z,37.80
2018-04-10T15:37:49.547Z,37.70
2018-04-10T15:40:17.086Z,38.30
2018-04-10T15:42:44.963Z,36.40
2018-04-10T15:45:12.508Z,37.20
2018-04-10T15:47:40.058Z,36.00
2018-04-10T15:50:07.736Z,37.60
2018-04-10T15:52:35.270Z,37.90
2018-04-10T15:55:02.840Z,38.20
2018-04-10T15:57:30.379Z,38.10
2018-04-10T15:59:58.996Z,38.90
2018-04-10T16:02:26.549Z,38.80
2018-04-10T16:04:54.122Z,39.50
2018-04-10T16:07:21.704Z,39.50
2018-04-10T16:09:49.259Z,39.50
2018-04-10T16:12:16.842Z,40.10
2018-04-10T16:14:44.450Z,40.10
2018-04-10T16:17:12.071Z,40.20
2018-04-10T16:19:40.399Z,40.30
2018-04-10T16:22:07.925Z,40.10
2018-04-10T16:24:35.488Z,41.10
2018-04-10T16:27:03.033Z,41.20
2018-04-10T16:29:30.957Z,41.70
2018-04-10T16:31:58.502Z,41.60
2018-04-10T16:34:26.100Z,42.10
2018-04-10T16:36:53.668Z,42.20
2018-04-10T16:39:21.278Z,42.60
2018-04-10T16:41:48.856Z,42.50
2018-04-10T16:44:16.398Z,42.70
2018-04-10T16:46:43.971Z,42.60
2018-04-10T16:49:11.774Z,43.00
2018-04-10T16:51:39.396Z,43.00
2018-04-10T16:54:06.967Z,43.30
2018-04-10T16:56:34.861Z,43.40
2018-04-10T16:59:02.504Z,43.50
2018-04-10T17:01:30.061Z,42.50
2018-04-10T17:03:57.638Z,43.60
2018-04-10T17:06:25.198Z,43.40
2018-04-10T17:08:52.789Z,43.60
2018-04-10T17:11:20.342Z,44.00
2018-04-10T17:13:47.948Z,43.80
2018-04-10T17:16:15.510Z,44.60
2018-04-10T17:18:43.250Z,44.00
2018-04-10T17:21:10.787Z,44.60
2018-04-10T17:23:38.380Z,44.60
2018-04-10T17:26:05.910Z,44.90
2018-04-10T17:28:33.468Z,44.90
2018-04-10T17:31:01.780Z,44.80
2018-04-10T17:33:29.393Z,44.70
2018-04-10T17:35:57.053Z,44.70
2018-04-10T17:38:25.663Z,44.50
2018-04-10T17:40:53.199Z,44.50
2018-04-10T17:43:21.575Z,44.40
2018-04-10T17:45:49.152Z,44.40
2018-04-10T17:48:17.446Z,44.20
2018-04-10T17:50:45.124Z,43.60
2018-04-10T17:53:12.682Z,44.20
2018-04-10T17:55:40.276Z,44.70
2018-04-10T17:58:07.822Z,45.30
2018-04-10T18:00:35.521Z,45.20
2018-04-10T18:03:03.094Z,45.20
2018-04-10T18:05:31.040Z,45.40
2018-04-10T18:07:59.343Z,46.00
2018-04-10T18:10:26.930Z,45.90
2018-04-10T18:12:54.786Z,46.20
2018-04-10T18:15:22.452Z,46.50
2018-04-10T18:17:50.044Z,46.60
2018-04-10T18:20:17.657Z,46.90
2018-04-10T18:22:45.187Z,46.80
2018-04-10T18:25:12.764Z,47.40
2018-04-10T18:27:40.828Z,47.50
2018-04-10T18:30:09.187Z,47.70
2018-04-10T18:32:37.103Z,47.80
2018-04-10T18:35:04.676Z,47.80
2018-04-10T18:37:32.226Z,48.00
2018-04-10T18:39:59.848Z,48.40
2018-04-10T18:42:27.403Z,48.30
2018-04-10T18:44:55.752Z,48.60
2018-04-10T18:47:23.358Z,48.60
2018-04-10T18:49:51.771Z,48.80
2018-04-10T18:52:20.171Z,49.00
2018-04-10T18:54:47.754Z,48.90
2018-04-10T18:57:15.325Z,49.20
2018-04-10T18:59:42.895Z,49.60
2018-04-10T19:02:10.476Z,49.50
2018-04-10T19:04:38.035Z,49.50
2018-04-10T19:07:05.609Z,49.40
2018-04-10T19:09:33.211Z,49.30
2018-04-10T19:12:00.772Z,49.60
2018-04-10T19:14:29.148Z,50.60
2018-04-10T19:16:56.839Z,50.60
2018-04-10T19:19:24.430Z,50.80
2018-04-10T19:21:52.021Z,50.70
2018-04-10T19:24:19.635Z,50.60
2018-04-10T19:26:47.246Z,50.60
2018-04-10T19:29:14.823Z,50.50
2018-04-10T19:31:43.569Z,50.60
2018-04-10T19:34:11.132Z,50.60
2018-04-10T19:36:38.861Z,50.60
2018-04-10T19:39:06.407Z,50.80
2018-04-10T19:41:33.978Z,51.20
2018-04-10T19:44:01.535Z,51.00
2018-04-10T19:46:29.116Z,51.20
2018-04-10T19:48:56.689Z,51.30
2018-04-10T19:51:24.316Z,51.60
2018-04-10T19:53:51.860Z,51.60
2018-04-10T19:56:20.237Z,51.90
2018-04-10T19:58:47.930Z,52.00
2018-04-10T20:01:15.508Z,52.10
2018-04-10T20:03:43.069Z,52.20
2018-04-10T20:06:10.700Z,52.20
2018-04-10T20:08:38.290Z,52.30
2018-04-10T20:11:05.828Z,52.40
2018-04-10T20:13:33.421Z,52.60
2018-04-10T20:16:01.154Z,52.60
2018-04-10T20:18:28.894Z,52.70
2018-04-10T20:20:57.227Z,53.10
2018-04-10T20:23:24.825Z,52.90
2018-04-10T20:25:53.143Z,53.70
2018-04-10T20:28:20.762Z,53.60
2018-04-10T20:30:49.085Z,53.90
2018-04-10T20:33:16.674Z,53.90
2018-04-10T20:35:44.259Z,54.00
2018-04-10T20:38:11.815Z,54.40
2018-04-10T20:40:40.138Z,55.00
2018-04-10T20:43:07.909Z,54.80
2018-04-10T20:45:35.451Z,55.20
2018-04-10T20:48:03.011Z,55.00
2018-04-10T20:50:30.790Z,55.00
2018-04-10T20:52:58.357Z,55.00
2018-04-10T20:55:25.890Z,54.90
2018-04-10T20:57:53.474Z,54.90
2018-04-10T21:00:21.983Z,54.90
2018-04-10T21:02:49.595Z,54.90
2018-04-10T21:05:17.374Z,54.90
2018-04-10T21:07:44.960Z,55.80
2018-04-10T21:10:12.775Z,55.80
2018-04-10T21:12:40.347Z,56.10
2018-04-10T21:15:08.193Z,56.40
2018-04-10T21:17:35.773Z,56.40
2018-04-10T21:20:03.332Z,56.60
2018-04-10T21:22:30.875Z,56.70
2018-04-10T21:24:58.634Z,56.80
2018-04-10T21:27:26.935Z,57.30
2018-04-10T21:29:54.494Z,57.30
2018-04-10T21:32:22.051Z,57.40
2018-04-10T21:34:49.609Z,57.60
2018-04-10T21:37:17.147Z,58.00
2018-04-10T21:39:45.481Z,58.10
2018-04-10T21:42:13.060Z,58.00
2018-04-10T21:44:40.604Z,58.10
2018-04-10T21:47:08.403Z,58.10
2018-04-10T21:49:36.815Z,58.40
2018-04-10T21:52:04.379Z,58.40
2018-04-10T21:54:31.920Z,58.70
2018-04-10T21:56:59.611Z,58.60
2018-04-10T21:59:27.163Z,58.60
2018-04-10T22:01:54.732Z,58.80
2018-04-10T22:04:22.269Z,58.90
2018-04-10T22:06:49.843Z,59.00
2018-04-10T22:09:17.389Z,59.00
2018-04-10T22:11:44.990Z,59.10
2018-04-10T22:14:12.531Z,59.10
2018-04-10T22:16:40.228Z,59.00
2018-04-10T22:19:07.806Z,59.20
2018-04-10T22:21:36.147Z,59.60
2018-04-10T22:24:03.811Z,59.40
2018-04-10T22:26:31.723Z,59.40
2018-04-10T22:28:59.258Z,59.70
2018-04-10T22:31:26.803Z,60.00
2018-04-10T22:33:54.356Z,60.20
2018-04-10T22:36:22.662Z,60.10
2018-04-10T22:38:50.395Z,60.10
2018-04-10T22:41:18.312Z,60.40
2018-04-10T22:43:45.861Z,60.30
2018-04-10T22:46:13.386Z,60.30
2018-04-10T22:48:41.076Z,60.40
2018-04-10T22:51:08.612Z,60.40
2018-04-10T22:53:36.935Z,60.30
2018-04-10T22:56:04.473Z,60.30
2018-04-10T22:58:32.055Z,60.30
2018-04-10T23:00:59.595Z,60.70
2018-04-10T23:03:27.184Z,60.50
2018-04-10T23:05:54.732Z,60.20
2018-04-10T23:08:22.302Z,60.50
2018-04-10T23:10:49.859Z,60.70
2018-04-10T23:13:17.436Z,60.70
2018-04-10T23:15:47.592Z,60.60
2018-04-10T23:18:15.187Z,61.00
2018-04-10T23:20:42.723Z,61.30
2018-04-10T23:23:10.863Z,61.40
2018-04-10T23:25:38.391Z,61.60
2018-04-10T23:28:05.976Z,61.30
2018-04-10T23:30:33.524Z,61.30
2018-04-10T23:33:01.090Z,61.60
2018-04-10T23:35:28.652Z,61.70
2018-04-10T23:37:56.228Z,61.80
2018-04-10T23:40:23.765Z,61.90
2018-04-10T23:42:51.543Z,62.10
2018-04-10T23:45:19.085Z,62.00
2018-04-10T23:47:46.619Z,62.20
2018-04-10T23:50:14.203Z,62.40
2018-04-10T23:52:41.723Z,62.60
2018-04-10T23:55:09.288Z,62.60
2018-04-10T23:57:37.580Z,62.80
